createdAt,value
2019-03-30T00:01:04.709Z,5.05
2019-03-30T00:03:35.370Z,4.99
2019-03-30T00:06:06.149Z,4.92
2019-03-30T00:08:36.970Z,4.83
2019-03-30T00:11:07.826Z,4.74
2019-03-30T00:13:38.509Z,4.68
2019-03-30T00:16:09.272Z,4.63
2019-03-30T00:18:41.553Z,4.54
2019-03-30T00:21:12.465Z,4.51
2019-03-30T00:23:44.786Z,4.45
2019-03-30T00:26:15.572Z,4.40
2019-03-30T00:28:47.200Z,4.38
2019-03-30T00:31:18.865Z,4.31
2019-03-30T00:33:51.201Z,4.27
2019-03-30T00:36:22.047Z,4.26
2019-03-30T00:38:52.941Z,4.23
2019-03-30T00:41:23.770Z,4.18
2019-03-30T00:43:56.160Z,4.17
2019-03-30T00:46:27.363Z,4.15
2019-03-30T00:48:58.063Z,4.11
2019-03-30T00:51:28.835Z,4.09
2019-03-30T00:54:00.328Z,4.05
2019-03-30T00:56:31.099Z,3.99
2019-03-30T00:59:02.666Z,3.93
2019-03-30T01:01:33.502Z,3.90
2019-03-30T01:04:04.266Z,3.88
2019-03-30T01:06:35.930Z,3.86
2019-03-30T01:09:09.020Z,3.85
2019-03-30T01:11:39.866Z,3.81
2019-03-30T01:14:10.546Z,3.80
2019-03-30T01:16:41.365Z,3.79
2019-03-30T01:19:12.102Z,3.80
2019-03-30T01:21:42.866Z,3.85
2019-03-30T01:24:13.631Z,3.90
2019-03-30T01:26:44.329Z,3.93
2019-03-30T01:29:16.294Z,3.92
2019-03-30T01:31:47.226Z,3.85
2019-03-30T01:34:19.024Z,3.85
2019-03-30T01:36:49.729Z,3.81
2019-03-30T01:39:20.687Z,3.80
2019-03-30T01:41:51.386Z,3.76
2019-03-30T01:44:22.106Z,3.70
2019-03-30T01:46:52.800Z,3.65
2019-03-30T01:49:24.312Z,3.62
2019-03-30T01:51:55.048Z,3.60
2019-03-30T01:54:25.879Z,3.57
2019-03-30T01:56:56.644Z,3.55
2019-03-30T01:59:27.422Z,3.51
2019-03-30T02:01:59.050Z,3.49
2019-03-30T02:04:29.888Z,3.49
2019-03-30T02:07:00.681Z,3.45
2019-03-30T02:09:31.452Z,3.40
2019-03-30T02:12:02.367Z,3.39
2019-03-30T02:14:33.120Z,3.43
2019-03-30T02:17:03.876Z,3.44
2019-03-30T02:19:34.660Z,3.47
2019-03-30T02:22:06.981Z,3.45
2019-03-30T02:24:37.770Z,3.47
2019-03-30T02:27:08.529Z,3.46
2019-03-30T02:29:39.203Z,3.45
2019-03-30T02:32:10.131Z,3.39
2019-03-30T02:34:40.908Z,3.28
2019-03-30T02:37:13.305Z,3.23
2019-03-30T02:39:45.593Z,3.19
2019-03-30T02:42:16.396Z,3.11
2019-03-30T02:44:47.113Z,3.06
2019-03-30T02:47:17.794Z,3.06
2019-03-30T02:49:48.578Z,2.96
2019-03-30T02:52:19.299Z,2.90
2019-03-30T02:54:50.029Z,2.83
2019-03-30T02:57:21.544Z,2.67
2019-03-30T02:59:52.241Z,2.54
2019-03-30T03:02:47.727Z,2.57
2019-03-30T03:05:45.037Z,2.60
2019-03-30T03:08:42.234Z,2.63
2019-03-30T03:11:40.504Z,2.67
2019-03-30T03:14:36.542Z,2.71
2019-03-30T03:17:33.679Z,2.73
2019-03-30T03:20:29.703Z,2.75
2019-03-30T03:23:26.257Z,2.77
2019-03-30T03:26:22.473Z,2.76
2019-03-30T03:29:18.823Z,2.77
2019-03-30T03:32:15.469Z,2.80
2019-03-30T03:35:12.423Z,2.81
2019-03-30T03:38:10.411Z,2.80
2019-03-30T03:41:06.748Z,2.80
2019-03-30T03:44:04.840Z,2.76
2019-03-30T03:47:00.891Z,2.62
2019-03-30T03:49:58.150Z,2.57
2019-03-30T03:52:53.424Z,2.45
2019-03-30T03:55:50.029Z,2.35
2019-03-30T03:58:45.674Z,2.32
2019-03-30T04:01:42.626Z,2.30
2019-03-30T04:04:40.965Z,2.28
2019-03-30T04:07:38.109Z,2.30
2019-03-30T04:10:35.231Z,2.30
2019-03-30T04:13:31.254Z,2.33
2019-03-30T04:16:29.028Z,2.35
2019-03-30T04:19:25.177Z,2.33
2019-03-30T04:22:21.643Z,2.32
2019-03-30T04:25:20.401Z,2.32
2019-03-30T04:28:16.486Z,2.28
2019-03-30T04:31:14.354Z,2.28
2019-03-30T04:34:11.406Z,2.30
2019-03-30T04:37:09.629Z,2.31
2019-03-30T04:40:06.895Z,2.37
2019-03-30T04:43:04.051Z,2.37
2019-03-30T04:46:02.107Z,2.35
2019-03-30T04:48:58.439Z,2.32
2019-03-30T04:51:57.700Z,2.25
2019-03-30T04:54:59.656Z,2.18
2019-03-30T04:57:57.714Z,2.11
2019-03-30T05:00:54.157Z,2.04
2019-03-30T05:03:51.052Z,1.97
2019-03-30T05:06:49.180Z,1.88
2019-03-30T05:09:45.077Z,1.85
2019-03-30T05:12:42.504Z,1.88
2019-03-30T05:15:39.129Z,1.89
2019-03-30T05:18:36.309Z,1.87
2019-03-30T05:21:32.436Z,1.88
2019-03-30T05:24:30.766Z,1.88
2019-03-30T05:27:27.861Z,1.87
2019-03-30T05:30:24.931Z,1.90
2019-03-30T05:33:22.370Z,1.92
2019-03-30T05:36:19.428Z,1.94
2019-03-30T05:39:17.751Z,1.96
2019-03-30T05:42:16.002Z,1.99
2019-03-30T05:45:15.419Z,2.04
2019-03-30T05:48:12.534Z,2.04
2019-03-30T05:51:08.830Z,2.05
2019-03-30T05:54:05.016Z,2.10
2019-03-30T05:57:03.201Z,2.12
2019-03-30T06:00:00.299Z,2.08
2019-03-30T06:02:57.577Z,2.12
2019-03-30T06:05:56.544Z,2.18
2019-03-30T06:08:53.638Z,2.25
2019-03-30T06:11:49.528Z,2.30
2019-03-30T06:14:46.567Z,2.42
2019-03-30T06:17:42.641Z,2.49
2019-03-30T06:20:39.754Z,2.58
2019-03-30T06:23:35.622Z,2.63
2019-03-30T06:26:33.739Z,2.69
2019-03-30T06:29:30.639Z,2.80
2019-03-30T06:32:26.257Z,2.87
2019-03-30T06:35:24.445Z,2.99
2019-03-30T06:38:20.721Z,3.11
2019-03-30T06:41:18.213Z,3.24
2019-03-30T06:44:15.290Z,3.35
2019-03-30T06:47:12.354Z,3.38
2019-03-30T06:50:09.507Z,3.42
2019-03-30T06:53:05.470Z,3.50
2019-03-30T06:56:02.646Z,3.62
2019-03-30T06:58:59.308Z,3.69
2019-03-30T07:01:56.414Z,3.78
2019-03-30T07:04:52.572Z,3.88
2019-03-30T07:07:51.880Z,3.98
2019-03-30T07:10:47.915Z,4.08
2019-03-30T07:13:45.276Z,4.19
2019-03-30T07:16:42.504Z,4.32
2019-03-30T07:19:39.896Z,4.42
2019-03-30T07:22:37.009Z,4.54
2019-03-30T07:25:32.417Z,4.68
2019-03-30T07:28:29.983Z,4.81
2019-03-30T07:31:26.134Z,4.94
2019-03-30T07:34:23.258Z,5.08
2019-03-30T07:37:21.691Z,5.22
2019-03-30T07:40:17.921Z,5.33
2019-03-30T07:43:16.268Z,5.44
2019-03-30T07:46:13.366Z,5.58
2019-03-30T07:49:10.510Z,5.72
2019-03-30T07:52:05.718Z,5.85
2019-03-30T07:55:03.078Z,5.98
2019-03-30T07:57:59.940Z,6.10
2019-03-30T08:00:56.765Z,6.35
2019-03-30T08:03:54.822Z,6.35
2019-03-30T08:06:52.327Z,6.58
2019-03-30T08:09:50.531Z,6.77
2019-03-30T08:12:46.845Z,6.94
2019-03-30T08:15:44.111Z,7.10
2019-03-30T08:18:41.363Z,7.24
2019-03-30T08:21:38.934Z,7.32
2019-03-30T08:24:34.820Z,7.44
2019-03-30T08:27:32.599Z,7.56
2019-03-30T08:30:30.124Z,7.69
2019-03-30T08:33:26.418Z,7.83
2019-03-30T08:36:23.567Z,7.98
2019-03-30T08:39:19.912Z,8.17
2019-03-30T08:42:17.455Z,8.28
2019-03-30T08:45:14.679Z,8.37
2019-03-30T08:48:13.677Z,8.46
2019-03-30T08:51:13.653Z,8.59
2019-03-30T08:54:19.335Z,8.74
2019-03-30T08:57:17.698Z,8.92
2019-03-30T09:00:13.957Z,9.00
2019-03-30T09:03:11.415Z,9.08
2019-03-30T09:06:08.904Z,9.21
2019-03-30T09:09:07.085Z,9.44
2019-03-30T09:12:03.697Z,9.63
2019-03-30T09:15:02.385Z,9.76
2019-03-30T09:18:00.130Z,9.91
2019-03-30T09:20:57.423Z,10.03
2019-03-30T09:24:08.427Z,10.09
2019-03-30T09:26:51.007Z,10.25
2019-03-30T09:29:48.403Z,10.44
2019-03-30T09:32:45.321Z,10.56
2019-03-30T09:35:42.141Z,10.59
2019-03-30T09:38:39.787Z,10.73
2019-03-30T09:41:35.854Z,10.88
2019-03-30T09:44:33.117Z,10.96
2019-03-30T09:47:31.601Z,10.98
2019-03-30T09:50:28.841Z,11.04
2019-03-30T09:53:25.492Z,11.36
2019-03-30T09:56:24.110Z,11.36
2019-03-30T09:59:21.447Z,11.53
2019-03-30T10:02:18.755Z,11.58
2019-03-30T10:05:14.405Z,11.68
2019-03-30T10:08:12.679Z,11.83
2019-03-30T10:11:12.659Z,11.92
2019-03-30T10:14:11.069Z,11.97
2019-03-30T10:17:07.743Z,12.12
2019-03-30T10:20:06.109Z,12.26
2019-03-30T10:23:03.747Z,12.31
2019-03-30T10:26:03.392Z,12.39
2019-03-30T10:29:01.772Z,12.49
2019-03-30T10:31:59.891Z,12.55
2019-03-30T10:34:58.724Z,12.66
2019-03-30T10:37:54.838Z,12.73
2019-03-30T10:40:53.382Z,12.76
2019-03-30T10:43:49.472Z,12.86
2019-03-30T10:46:47.072Z,13.05
2019-03-30T10:49:49.664Z,13.09
2019-03-30T10:52:49.244Z,13.25
2019-03-30T10:55:47.005Z,13.33
2019-03-30T10:58:45.093Z,13.42
2019-03-30T11:01:42.122Z,13.53
2019-03-30T11:04:40.452Z,13.69
2019-03-30T11:07:38.307Z,13.86
2019-03-30T11:10:37.284Z,14.00
2019-03-30T11:13:34.724Z,14.01
2019-03-30T11:16:31.845Z,14.05
2019-03-30T11:19:30.938Z,14.09
2019-03-30T11:22:27.832Z,14.17
2019-03-30T11:25:26.655Z,14.17
2019-03-30T11:28:23.659Z,14.22
2019-03-30T11:31:21.630Z,14.24
2019-03-30T11:34:19.606Z,14.31
2019-03-30T11:37:16.399Z,14.32
2019-03-30T11:40:14.943Z,14.48
2019-03-30T11:43:12.032Z,14.54
2019-03-30T11:46:09.237Z,14.61
2019-03-30T11:49:06.953Z,14.63
2019-03-30T11:52:05.508Z,14.61
2019-03-30T11:55:02.245Z,14.74
2019-03-30T11:58:00.113Z,14.89
2019-03-30T12:00:57.956Z,15.07
2019-03-30T12:03:55.855Z,15.12
2019-03-30T12:06:54.808Z,15.11
2019-03-30T12:09:51.367Z,15.23
2019-03-30T12:12:49.658Z,15.31
2019-03-30T12:15:46.699Z,15.36
2019-03-30T12:18:44.603Z,15.41
2019-03-30T12:21:42.138Z,15.55
2019-03-30T12:24:41.075Z,15.61
2019-03-30T12:27:38.204Z,15.64
2019-03-30T12:30:37.021Z,15.67
2019-03-30T12:33:35.166Z,15.81
2019-03-30T12:36:33.033Z,16.18
2019-03-30T12:39:30.187Z,16.39
2019-03-30T12:42:28.455Z,16.31
2019-03-30T12:45:35.267Z,16.21
2019-03-30T12:48:30.050Z,16.19
2019-03-30T12:51:28.816Z,16.28
2019-03-30T12:54:27.947Z,16.44
2019-03-30T12:57:28.510Z,16.51
2019-03-30T13:00:26.145Z,16.47
2019-03-30T13:03:27.528Z,16.47
2019-03-30T13:06:26.216Z,16.48
2019-03-30T13:09:24.152Z,16.55
2019-03-30T13:12:21.835Z,16.55
2019-03-30T13:15:19.715Z,16.62
2019-03-30T13:18:29.732Z,16.53
2019-03-30T13:21:27.795Z,16.53
2019-03-30T13:24:26.748Z,16.58
2019-03-30T13:27:23.883Z,16.71
2019-03-30T13:30:21.032Z,16.91
2019-03-30T13:33:17.250Z,17.16
2019-03-30T13:36:16.116Z,17.36
2019-03-30T13:39:12.571Z,17.53
2019-03-30T13:42:11.169Z,17.60
2019-03-30T13:45:09.671Z,17.67
2019-03-30T13:48:06.717Z,17.61
2019-03-30T13:51:04.840Z,17.51
2019-03-30T13:54:03.059Z,17.59
2019-03-30T13:57:01.061Z,17.64
2019-03-30T13:59:58.875Z,17.63
2019-03-30T14:02:56.949Z,17.70
2019-03-30T14:05:54.365Z,17.85
2019-03-30T14:08:52.137Z,17.95
2019-03-30T14:11:52.333Z,18.10
2019-03-30T14:14:51.645Z,18.28
2019-03-30T14:17:49.821Z,18.53
2019-03-30T14:20:47.781Z,18.64
2019-03-30T14:23:46.051Z,18.65
2019-03-30T14:26:44.271Z,18.70
2019-03-30T14:29:41.099Z,18.83
2019-03-30T14:32:40.250Z,18.90
2019-03-30T14:35:37.238Z,19.03
2019-03-30T14:38:35.142Z,19.24
2019-03-30T14:41:33.285Z,19.21
2019-03-30T14:44:30.500Z,19.28
2019-03-30T14:47:34.168Z,19.62
2019-03-30T14:50:33.039Z,20.02
2019-03-30T14:53:33.478Z,20.50
2019-03-30T14:56:45.472Z,21.08
2019-03-30T14:59:34.187Z,21.45
2019-03-30T15:02:32.146Z,21.69
2019-03-30T15:05:29.350Z,21.95
2019-03-30T15:08:30.285Z,21.98
2019-03-30T15:11:27.697Z,22.16
2019-03-30T15:14:27.063Z,22.25
2019-03-30T15:17:24.991Z,22.38
2019-03-30T15:20:22.101Z,22.46
2019-03-30T15:23:21.247Z,22.37
2019-03-30T15:26:18.032Z,22.33
2019-03-30T15:29:15.996Z,22.39
2019-03-30T15:32:12.944Z,22.48
2019-03-30T15:35:10.932Z,22.38
2019-03-30T15:38:09.099Z,22.47
2019-03-30T15:41:07.249Z,22.41
2019-03-30T15:44:06.522Z,22.21
2019-03-30T15:47:05.159Z,21.99
2019-03-30T15:50:03.409Z,21.44
2019-03-30T15:53:01.185Z,20.89
2019-03-30T15:55:58.341Z,20.52
2019-03-30T15:59:01.801Z,20.06
2019-03-30T16:01:59.767Z,19.85
2019-03-30T16:05:02.494Z,19.55
2019-03-30T16:08:00.397Z,19.20
2019-03-30T16:10:58.456Z,18.96
2019-03-30T16:13:57.140Z,18.69
2019-03-30T16:16:54.864Z,18.57
2019-03-30T16:19:51.763Z,18.40
2019-03-30T16:22:50.783Z,18.23
2019-03-30T16:25:48.748Z,18.04
2019-03-30T16:28:46.779Z,17.89
2019-03-30T16:31:44.176Z,17.65
2019-03-30T16:37:05.982Z,17.37
2019-03-30T16:39:36.582Z,17.22
2019-03-30T16:42:07.771Z,17.20
2019-03-30T16:44:38.427Z,17.13
2019-03-30T16:47:09.030Z,17.08
2019-03-30T16:49:39.678Z,17.03
2019-03-30T16:52:10.272Z,16.95
2019-03-30T16:54:40.898Z,16.82
2019-03-30T16:57:11.524Z,16.74
2019-03-30T16:59:42.281Z,16.65
2019-03-30T17:02:12.854Z,16.58
2019-03-30T17:04:43.434Z,16.49
2019-03-30T17:07:13.985Z,16.42
2019-03-30T17:09:44.640Z,16.32
2019-03-30T17:12:15.253Z,16.26
2019-03-30T17:14:45.914Z,16.18
2019-03-30T17:17:16.601Z,16.12
2019-03-30T17:19:47.252Z,16.05
2019-03-30T17:22:17.854Z,15.98
2019-03-30T17:24:48.508Z,15.88
2019-03-30T17:27:19.129Z,15.79
2019-03-30T17:29:49.706Z,15.68
2019-03-30T17:32:20.358Z,15.55
2019-03-30T17:34:51.006Z,15.46
2019-03-30T17:37:21.641Z,15.35
2019-03-30T17:39:52.298Z,15.23
2019-03-30T17:42:22.936Z,15.14
2019-03-30T17:44:53.594Z,15.01
2019-03-30T17:47:24.188Z,14.90
2019-03-30T17:49:54.831Z,14.77
2019-03-30T17:52:25.505Z,14.65
2019-03-30T17:54:56.884Z,14.53
2019-03-30T17:57:27.520Z,14.42
2019-03-30T17:59:58.205Z,14.31
2019-03-30T18:02:29.027Z,14.21
2019-03-30T18:04:59.628Z,14.10
2019-03-30T18:07:30.224Z,14.00
2019-03-30T18:10:03.517Z,13.90
2019-03-30T18:12:33.150Z,13.79
2019-03-30T18:15:03.774Z,13.68
2019-03-30T18:17:34.369Z,13.54
2019-03-30T18:20:05.102Z,13.42
2019-03-30T18:22:35.846Z,13.32
2019-03-30T18:25:06.695Z,13.24
2019-03-30T18:27:37.323Z,13.18
2019-03-30T18:30:08.793Z,13.07
2019-03-30T18:32:40.041Z,12.99
2019-03-30T18:35:10.797Z,12.78
2019-03-30T18:37:41.572Z,12.81
2019-03-30T18:40:16.913Z,12.72
2019-03-30T18:42:47.580Z,12.62
2019-03-30T18:45:27.229Z,12.56
2019-03-30T18:48:13.707Z,12.50
2019-03-30T18:50:44.916Z,12.43
2019-03-30T18:53:16.695Z,12.37
2019-03-30T18:55:47.459Z,12.26
2019-03-30T18:58:18.072Z,12.14
2019-03-30T19:00:48.654Z,12.00
2019-03-30T19:03:20.257Z,11.88
2019-03-30T19:05:51.184Z,11.76
2019-03-30T19:08:21.819Z,11.64
2019-03-30T19:10:52.550Z,11.54
2019-03-30T19:13:23.168Z,11.45
2019-03-30T19:15:53.793Z,11.38
2019-03-30T19:18:24.444Z,11.32
2019-03-30T19:20:55.064Z,11.23
2019-03-30T19:23:25.801Z,11.16
2019-03-30T19:25:56.493Z,11.09
2019-03-30T19:28:27.317Z,11.02
2019-03-30T19:30:57.942Z,10.97
2019-03-30T19:33:28.636Z,10.90
2019-03-30T19:36:00.991Z,10.83
2019-03-30T19:38:31.655Z,10.78
2019-03-30T19:41:02.277Z,10.70
2019-03-30T19:43:32.897Z,10.65
2019-03-30T19:46:03.587Z,10.57
2019-03-30T19:48:36.934Z,10.45
2019-03-30T19:51:06.990Z,10.37
2019-03-30T19:53:37.740Z,10.28
2019-03-30T19:56:08.356Z,10.20
2019-03-30T19:58:39.034Z,10.10
2019-03-30T20:01:09.667Z,9.98
2019-03-30T20:03:41.311Z,9.90
2019-03-30T20:06:12.037Z,9.76
2019-03-30T20:08:42.636Z,9.76
2019-03-30T20:11:13.305Z,9.70
2019-03-30T20:13:43.962Z,9.66
2019-03-30T20:16:14.661Z,9.63
2019-03-30T20:18:45.317Z,9.58
2019-03-30T20:21:16.022Z,9.51
2019-03-30T20:23:46.657Z,9.47
2019-03-30T20:26:17.379Z,9.43
2019-03-30T20:28:48.069Z,9.39
2019-03-30T20:31:18.680Z,9.33
2019-03-30T20:33:49.273Z,9.28
2019-03-30T20:36:20.056Z,9.22
2019-03-30T20:38:50.685Z,9.16
2019-03-30T20:41:21.389Z,9.11
2019-03-30T20:43:52.097Z,9.02
2019-03-30T20:46:22.734Z,9.01
2019-03-30T20:48:54.581Z,8.96
2019-03-30T20:51:25.214Z,8.91
2019-03-30T20:53:55.827Z,8.90
2019-03-30T20:56:26.531Z,8.87
2019-03-30T20:58:57.256Z,8.77
2019-03-30T21:01:27.843Z,8.68
2019-03-30T21:03:58.443Z,8.56
2019-03-30T21:06:29.037Z,8.47
2019-03-30T21:08:59.752Z,8.41
2019-03-30T21:11:30.385Z,8.35
2019-03-30T21:14:01.029Z,8.31
2019-03-30T21:16:31.687Z,8.26
2019-03-30T21:19:02.325Z,8.23
2019-03-30T21:21:33.103Z,8.19
2019-03-30T21:24:03.770Z,8.15
2019-03-30T21:26:34.399Z,8.08
2019-03-30T21:29:05.100Z,8.04
2019-03-30T21:31:35.675Z,8.00
2019-03-30T21:34:06.359Z,7.95
2019-03-30T21:36:36.994Z,7.90
2019-03-30T21:39:09.196Z,7.84
2019-03-30T21:41:39.780Z,7.79
2019-03-30T21:44:21.359Z,7.75
2019-03-30T21:46:42.752Z,7.73
2019-03-30T21:49:13.358Z,7.67
2019-03-30T21:51:44.016Z,7.60
2019-03-30T21:54:14.563Z,7.59
2019-03-30T21:56:45.219Z,7.57
2019-03-30T21:59:15.828Z,7.53
2019-03-30T22:01:46.571Z,7.51
2019-03-30T22:04:17.188Z,7.51
2019-03-30T22:06:47.818Z,7.49
2019-03-30T22:09:18.559Z,7.48
2019-03-30T22:11:49.187Z,7.46
2019-03-30T22:14:19.849Z,7.44
2019-03-30T22:16:50.526Z,7.44
2019-03-30T22:19:21.123Z,7.39
2019-03-30T22:21:51.840Z,7.32
2019-03-30T22:24:23.253Z,7.27
2019-03-30T22:26:53.907Z,7.23
2019-03-30T22:29:24.546Z,7.18
2019-03-30T22:31:55.246Z,7.10
2019-03-30T22:34:25.844Z,7.00
2019-03-30T22:36:56.449Z,6.94
2019-03-30T22:39:27.058Z,6.83
2019-03-30T22:41:57.679Z,6.76
2019-03-30T22:44:28.316Z,6.68
2019-03-30T22:46:58.972Z,6.68
2019-03-30T22:49:29.643Z,6.67
2019-03-30T22:52:00.281Z,6.65
2019-03-30T22:54:30.856Z,6.65
2019-03-30T22:57:01.447Z,6.63
2019-03-30T22:59:32.012Z,6.58
2019-03-30T23:02:02.660Z,6.53
2019-03-30T23:04:33.262Z,6.51
2019-03-30T23:07:03.920Z,6.50
2019-03-30T23:09:34.528Z,6.45
2019-03-30T23:12:05.172Z,6.44
2019-03-30T23:14:35.781Z,6.42
2019-03-30T23:17:06.426Z,6.42
2019-03-30T23:19:37.077Z,6.40
2019-03-30T23:22:07.743Z,6.37
2019-03-30T23:24:38.377Z,6.35
2019-03-30T23:27:08.977Z,6.33
2019-03-30T23:29:39.662Z,6.28
2019-03-30T23:32:10.267Z,6.23
2019-03-30T23:34:40.928Z,6.22
2019-03-30T23:37:11.507Z,6.20
2019-03-30T23:39:42.108Z,6.19
2019-03-30T23:42:12.692Z,6.18
2019-03-30T23:44:43.269Z,6.15
2019-03-30T23:47:13.848Z,6.10
2019-03-30T23:49:44.451Z,6.06
2019-03-30T23:52:15.344Z,6.04
2019-03-30T23:54:45.989Z,6.02
2019-03-30T23:57:18.477Z,5.95
2019-03-30T23:59:49.095Z,5.85
